sensor_id;sensor_type;location;lat;lon;timestamp;P1;durP1;ratioP1;P2;durP2;ratioP2
72087;SDS011;59961;50.232;8.616;2023-03-04T00:00:28;24.40;;;7.93;;
72087;SDS011;59961;50.232;8.616;2023-03-04T00:02:53;24.38;;;7.82;;
72087;SDS011;59961;50.232;8.616;2023-03-04T00:05:18;21.45;;;7.88;;
72087;SDS011;59961;50.232;8.616;2023-03-04T00:07:43;22.00;;;8.77;;
72087;SDS011;59961;50.232;8.616;2023-03-04T00:10:09;27.33;;;7.97;;
72087;SDS011;59961;50.232;8.616;2023-03-04T00:12:34;24.53;;;7.67;;
72087;SDS011;59961;50.232;8.616;2023-03-04T00:14:59;27.58;;;8.68;;
72087;SDS011;59961;50.232;8.616;2023-03-04T00:17:25;23.67;;;7.88;;
72087;SDS011;59961;50.232;8.616;2023-03-04T00:19:50;25.42;;;8.43;;
72087;SDS011;59961;50.232;8.616;2023-03-04T00:22:15;23.48;;;8.32;;
72087;SDS011;59961;50.232;8.616;2023-03-04T00:24:40;20.73;;;8.20;;
72087;SDS011;59961;50.232;8.616;2023-03-04T00:27:05;22.03;;;8.13;;
72087;SDS011;59961;50.232;8.616;2023-03-04T00:29:30;23.60;;;8.43;;
72087;SDS011;59961;50.232;8.616;2023-03-04T00:31:55;23.40;;;7.63;;
72087;SDS011;59961;50.232;8.616;2023-03-04T00:34:21;24.47;;;8.03;;
72087;SDS011;59961;50.232;8.616;2023-03-04T00:36:46;24.17;;;8.23;;
72087;SDS011;59961;50.232;8.616;2023-03-04T00:39:11;20.77;;;7.47;;
72087;SDS011;59961;50.232;8.616;2023-03-04T00:41:36;22.73;;;8.10;;
72087;SDS011;59961;50.232;8.616;2023-03-04T00:44:02;24.40;;;7.40;;
72087;SDS011;59961;50.232;8.616;2023-03-04T00:46:27;22.75;;;7.55;;
72087;SDS011;59961;50.232;8.616;2023-03-04T00:48:52;24.67;;;7.97;;
72087;SDS011;59961;50.232;8.616;2023-03-04T00:51:17;22.88;;;8.02;;
72087;SDS011;59961;50.232;8.616;2023-03-04T00:53:42;26.15;;;8.30;;
72087;SDS011;59961;50.232;8.616;2023-03-04T00:56:07;22.13;;;7.22;;
72087;SDS011;59961;50.232;8.616;2023-03-04T00:58:32;20.75;;;7.45;;
72087;SDS011;59961;50.232;8.616;2023-03-04T01:00:58;23.63;;;7.37;;
72087;SDS011;59961;50.232;8.616;2023-03-04T01:03:23;20.70;;;6.90;;
72087;SDS011;59961;50.232;8.616;2023-03-04T01:05:50;19.67;;;7.20;;
72087;SDS011;59961;50.232;8.616;2023-03-04T01:08:15;19.80;;;6.80;;
72087;SDS011;59961;50.232;8.616;2023-03-04T01:10:41;21.83;;;7.25;;
72087;SDS011;59961;50.232;8.616;2023-03-04T01:13:06;19.85;;;7.22;;
72087;SDS011;59961;50.232;8.616;2023-03-04T01:15:31;20.13;;;7.17;;
72087;SDS011;59961;50.232;8.616;2023-03-04T01:17:56;19.17;;;7.13;;
72087;SDS011;59961;50.232;8.616;2023-03-04T01:20:21;19.75;;;7.65;;
72087;SDS011;59961;50.232;8.616;2023-03-04T01:22:46;20.00;;;7.30;;
72087;SDS011;59961;50.232;8.616;2023-03-04T01:25:11;18.35;;;6.97;;
72087;SDS011;59961;50.232;8.616;2023-03-04T01:27:37;19.40;;;6.87;;
72087;SDS011;59961;50.232;8.616;2023-03-04T01:30:02;21.50;;;6.82;;
72087;SDS011;59961;50.232;8.616;2023-03-04T01:32:27;21.70;;;7.40;;
72087;SDS011;59961;50.232;8.616;2023-03-04T01:34:53;19.87;;;7.63;;
72087;SDS011;59961;50.232;8.616;2023-03-04T01:37:18;18.27;;;7.90;;
72087;SDS011;59961;50.232;8.616;2023-03-04T01:39:43;20.70;;;7.82;;
72087;SDS011;59961;50.232;8.616;2023-03-04T01:42:12;21.77;;;8.45;;
72087;SDS011;59961;50.232;8.616;2023-03-04T01:44:39;19.52;;;7.40;;
72087;SDS011;59961;50.232;8.616;2023-03-04T01:47:04;21.70;;;8.87;;
72087;SDS011;59961;50.232;8.616;2023-03-04T01:49:29;18.35;;;6.93;;
72087;SDS011;59961;50.232;8.616;2023-03-04T01:51:55;19.33;;;7.93;;
72087;SDS011;59961;50.232;8.616;2023-03-04T01:54:21;23.40;;;8.93;;
72087;SDS011;59961;50.232;8.616;2023-03-04T01:56:47;18.15;;;7.00;;
72087;SDS011;59961;50.232;8.616;2023-03-04T01:59:13;17.93;;;7.03;;
72087;SDS011;59961;50.232;8.616;2023-03-04T02:01:40;22.25;;;8.30;;
72087;SDS011;59961;50.232;8.616;2023-03-04T02:04:07;21.98;;;8.77;;
72087;SDS011;59961;50.232;8.616;2023-03-04T02:06:33;21.07;;;7.63;;
72087;SDS011;59961;50.232;8.616;2023-03-04T02:08:58;22.27;;;8.45;;
72087;SDS011;59961;50.232;8.616;2023-03-04T02:11:23;19.47;;;7.73;;
72087;SDS011;59961;50.232;8.616;2023-03-04T02:13:48;17.73;;;7.73;;
72087;SDS011;59961;50.232;8.616;2023-03-04T02:16:14;19.08;;;7.63;;
72087;SDS011;59961;50.232;8.616;2023-03-04T02:18:39;24.03;;;8.33;;
72087;SDS011;59961;50.232;8.616;2023-03-04T02:21:18;18.47;;;8.00;;
72087;SDS011;59961;50.232;8.616;2023-03-04T02:26:17;17.55;;;7.90;;
72087;SDS011;59961;50.232;8.616;2023-03-04T02:28:42;20.58;;;9.48;;
72087;SDS011;59961;50.232;8.616;2023-03-04T02:31:11;21.53;;;8.27;;
72087;SDS011;59961;50.232;8.616;2023-03-04T02:33:41;18.17;;;7.40;;
72087;SDS011;59961;50.232;8.616;2023-03-04T02:36:07;20.20;;;8.38;;
72087;SDS011;59961;50.232;8.616;2023-03-04T02:38:33;23.07;;;9.03;;
72087;SDS011;59961;50.232;8.616;2023-03-04T02:40:58;17.48;;;7.65;;
72087;SDS011;59961;50.232;8.616;2023-03-04T02:43:23;23.30;;;8.85;;
72087;SDS011;59961;50.232;8.616;2023-03-04T02:45:48;21.02;;;9.45;;
72087;SDS011;59961;50.232;8.616;2023-03-04T02:48:15;24.38;;;10.15;;
72087;SDS011;59961;50.232;8.616;2023-03-04T02:50:42;18.43;;;7.03;;
72087;SDS011;59961;50.232;8.616;2023-03-04T02:53:07;22.85;;;8.98;;
72087;SDS011;59961;50.232;8.616;2023-03-04T02:55:33;22.70;;;9.10;;
72087;SDS011;59961;50.232;8.616;2023-03-04T02:57:58;17.23;;;8.03;;
72087;SDS011;59961;50.232;8.616;2023-03-04T03:00:23;18.17;;;7.87;;
72087;SDS011;59961;50.232;8.616;2023-03-04T03:02:48;19.42;;;8.50;;
72087;SDS011;59961;50.232;8.616;2023-03-04T03:05:14;19.97;;;9.17;;
72087;SDS011;59961;50.232;8.616;2023-03-04T03:07:39;16.40;;;8.25;;
72087;SDS011;59961;50.232;8.616;2023-03-04T03:10:04;17.00;;;8.10;;
72087;SDS011;59961;50.232;8.616;2023-03-04T03:12:29;20.67;;;8.40;;
72087;SDS011;59961;50.232;8.616;2023-03-04T03:14:55;21.70;;;9.38;;
72087;SDS011;59961;50.232;8.616;2023-03-04T03:17:20;18.65;;;8.05;;
72087;SDS011;59961;50.232;8.616;2023-03-04T03:19:45;20.27;;;8.82;;
72087;SDS011;59961;50.232;8.616;2023-03-04T03:22:10;19.50;;;7.67;;
72087;SDS011;59961;50.232;8.616;2023-03-04T03:24:35;15.63;;;7.13;;
72087;SDS011;59961;50.232;8.616;2023-03-04T03:27:00;14.27;;;7.32;;
72087;SDS011;59961;50.232;8.616;2023-03-04T03:29:25;20.03;;;9.13;;
72087;SDS011;59961;50.232;8.616;2023-03-04T03:31:51;17.90;;;8.40;;
72087;SDS011;59961;50.232;8.616;2023-03-04T03:34:16;18.90;;;8.57;;
72087;SDS011;59961;50.232;8.616;2023-03-04T03:36:41;22.02;;;8.90;;
72087;SDS011;59961;50.232;8.616;2023-03-04T03:39:06;19.37;;;8.47;;
72087;SDS011;59961;50.232;8.616;2023-03-04T03:41:31;21.98;;;8.90;;
72087;SDS011;59961;50.232;8.616;2023-03-04T03:43:56;16.92;;;8.00;;
72087;SDS011;59961;50.232;8.616;2023-03-04T03:46:21;17.27;;;8.85;;
72087;SDS011;59961;50.232;8.616;2023-03-04T03:48:46;18.27;;;8.37;;
72087;SDS011;59961;50.232;8.616;2023-03-04T03:51:12;18.58;;;8.85;;
72087;SDS011;59961;50.232;8.616;2023-03-04T03:53:37;19.00;;;8.37;;
72087;SDS011;59961;50.232;8.616;2023-03-04T03:56:02;20.23;;;9.53;;
72087;SDS011;59961;50.232;8.616;2023-03-04T03:58:27;21.03;;;9.13;;
72087;SDS011;59961;50.232;8.616;2023-03-04T04:00:52;19.83;;;9.30;;
72087;SDS011;59961;50.232;8.616;2023-03-04T04:03:17;20.23;;;9.43;;
72087;SDS011;59961;50.232;8.616;2023-03-04T04:05:43;22.10;;;9.50;;
72087;SDS011;59961;50.232;8.616;2023-03-04T04:08:12;20.53;;;8.83;;
72087;SDS011;59961;50.232;8.616;2023-03-04T04:10:37;19.83;;;8.55;;
72087;SDS011;59961;50.232;8.616;2023-03-04T04:13:02;18.90;;;9.60;;
72087;SDS011;59961;50.232;8.616;2023-03-04T04:15:27;19.00;;;9.13;;
72087;SDS011;59961;50.232;8.616;2023-03-04T04:17:52;19.02;;;9.13;;
72087;SDS011;59961;50.232;8.616;2023-03-04T04:20:17;20.77;;;9.47;;
72087;SDS011;59961;50.232;8.616;2023-03-04T04:22:43;21.67;;;9.00;;
72087;SDS011;59961;50.232;8.616;2023-03-04T04:25:08;18.83;;;9.15;;
72087;SDS011;59961;50.232;8.616;2023-03-04T04:27:34;17.40;;;9.15;;
72087;SDS011;59961;50.232;8.616;2023-03-04T04:29:59;21.73;;;8.95;;
72087;SDS011;59961;50.232;8.616;2023-03-04T04:32:24;18.17;;;8.32;;
72087;SDS011;59961;50.232;8.616;2023-03-04T04:34:49;19.23;;;9.20;;
72087;SDS011;59961;50.232;8.616;2023-03-04T04:37:14;18.05;;;8.90;;
72087;SDS011;59961;50.232;8.616;2023-03-04T04:39:40;18.42;;;8.65;;
72087;SDS011;59961;50.232;8.616;2023-03-04T04:42:05;20.27;;;9.23;;
72087;SDS011;59961;50.232;8.616;2023-03-04T04:44:30;21.60;;;9.45;;
72087;SDS011;59961;50.232;8.616;2023-03-04T04:46:55;17.07;;;8.87;;
72087;SDS011;59961;50.232;8.616;2023-03-04T04:49:20;23.00;;;9.07;;
72087;SDS011;59961;50.232;8.616;2023-03-04T04:51:45;21.20;;;9.48;;
72087;SDS011;59961;50.232;8.616;2023-03-04T04:54:11;20.05;;;8.38;;
72087;SDS011;59961;50.232;8.616;2023-03-04T04:56:37;16.92;;;8.60;;
72087;SDS011;59961;50.232;8.616;2023-03-04T04:59:03;19.27;;;8.40;;
72087;SDS011;59961;50.232;8.616;2023-03-04T05:01:28;22.10;;;8.70;;
72087;SDS011;59961;50.232;8.616;2023-03-04T05:03:54;16.63;;;8.13;;
72087;SDS011;59961;50.232;8.616;2023-03-04T05:06:19;18.40;;;8.47;;
72087;SDS011;59961;50.232;8.616;2023-03-04T05:08:45;20.43;;;9.00;;
72087;SDS011;59961;50.232;8.616;2023-03-04T05:11:11;23.15;;;9.45;;
72087;SDS011;59961;50.232;8.616;2023-03-04T05:13:36;17.90;;;8.37;;
72087;SDS011;59961;50.232;8.616;2023-03-04T05:16:01;22.80;;;9.30;;
72087;SDS011;59961;50.232;8.616;2023-03-04T05:18:26;19.15;;;8.50;;
72087;SDS011;59961;50.232;8.616;2023-03-04T05:20:53;18.58;;;8.38;;
72087;SDS011;59961;50.232;8.616;2023-03-04T05:23:18;20.63;;;8.50;;
72087;SDS011;59961;50.232;8.616;2023-03-04T05:25:43;19.27;;;8.60;;
72087;SDS011;59961;50.232;8.616;2023-03-04T05:28:09;20.70;;;8.67;;
72087;SDS011;59961;50.232;8.616;2023-03-04T05:30:36;19.15;;;8.90;;
72087;SDS011;59961;50.232;8.616;2023-03-04T05:33:01;20.67;;;8.57;;
72087;SDS011;59961;50.232;8.616;2023-03-04T05:35:26;20.38;;;8.63;;
72087;SDS011;59961;50.232;8.616;2023-03-04T05:37:52;18.03;;;8.50;;
72087;SDS011;59961;50.232;8.616;2023-03-04T05:40:17;21.53;;;9.10;;
72087;SDS011;59961;50.232;8.616;2023-03-04T05:42:42;19.37;;;7.87;;
72087;SDS011;59961;50.232;8.616;2023-03-04T05:45:07;19.80;;;8.57;;
72087;SDS011;59961;50.232;8.616;2023-03-04T05:47:32;19.27;;;9.13;;
72087;SDS011;59961;50.232;8.616;2023-03-04T05:49:58;21.17;;;8.57;;
72087;SDS011;59961;50.232;8.616;2023-03-04T05:52:23;24.00;;;8.80;;
72087;SDS011;59961;50.232;8.616;2023-03-04T05:54:48;18.40;;;8.30;;
72087;SDS011;59961;50.232;8.616;2023-03-04T05:57:13;22.15;;;8.75;;
72087;SDS011;59961;50.232;8.616;2023-03-04T05:59:38;18.02;;;7.32;;
72087;SDS011;59961;50.232;8.616;2023-03-04T06:02:03;16.27;;;7.90;;
72087;SDS011;59961;50.232;8.616;2023-03-04T06:04:28;18.50;;;7.50;;
72087;SDS011;59961;50.232;8.616;2023-03-04T06:06:54;19.00;;;7.73;;
72087;SDS011;59961;50.232;8.616;2023-03-04T06:09:19;18.30;;;8.50;;
72087;SDS011;59961;50.232;8.616;2023-03-04T06:11:45;19.30;;;7.27;;
72087;SDS011;59961;50.232;8.616;2023-03-04T06:14:10;20.33;;;7.60;;
72087;SDS011;59961;50.232;8.616;2023-03-04T06:16:35;16.70;;;6.95;;
72087;SDS011;59961;50.232;8.616;2023-03-04T06:19:00;18.37;;;7.03;;
72087;SDS011;59961;50.232;8.616;2023-03-04T06:21:25;20.73;;;8.10;;
72087;SDS011;59961;50.232;8.616;2023-03-04T06:23:50;18.10;;;7.88;;
72087;SDS011;59961;50.232;8.616;2023-03-04T06:26:16;20.13;;;7.97;;
72087;SDS011;59961;50.232;8.616;2023-03-04T06:28:41;18.10;;;7.60;;
72087;SDS011;59961;50.232;8.616;2023-03-04T06:31:06;18.08;;;7.95;;
72087;SDS011;59961;50.232;8.616;2023-03-04T06:33:32;17.23;;;7.07;;
72087;SDS011;59961;50.232;8.616;2023-03-04T06:35:57;16.53;;;6.83;;
72087;SDS011;59961;50.232;8.616;2023-03-04T06:38:23;19.87;;;7.57;;
72087;SDS011;59961;50.232;8.616;2023-03-04T06:40:49;15.52;;;6.78;;
72087;SDS011;59961;50.232;8.616;2023-03-04T06:43:14;22.20;;;8.13;;
72087;SDS011;59961;50.232;8.616;2023-03-04T06:45:39;16.63;;;7.10;;
72087;SDS011;59961;50.232;8.616;2023-03-04T06:48:04;16.47;;;7.03;;
72087;SDS011;59961;50.232;8.616;2023-03-04T06:50:29;15.87;;;6.70;;
72087;SDS011;59961;50.232;8.616;2023-03-04T06:52:55;15.43;;;6.78;;
72087;SDS011;59961;50.232;8.616;2023-03-04T06:55:20;22.20;;;7.43;;
72087;SDS011;59961;50.232;8.616;2023-03-04T06:57:45;17.77;;;6.10;;
72087;SDS011;59961;50.232;8.616;2023-03-04T07:00:11;20.27;;;6.60;;
72087;SDS011;59961;50.232;8.616;2023-03-04T07:02:36;16.88;;;7.07;;
72087;SDS011;59961;50.232;8.616;2023-03-04T07:05:01;15.53;;;6.37;;
72087;SDS011;59961;50.232;8.616;2023-03-04T07:07:26;17.27;;;6.88;;
72087;SDS011;59961;50.232;8.616;2023-03-04T07:09:51;18.10;;;6.40;;
72087;SDS011;59961;50.232;8.616;2023-03-04T07:12:17;17.20;;;6.23;;
72087;SDS011;59961;50.232;8.616;2023-03-04T07:14:42;17.55;;;7.40;;
72087;SDS011;59961;50.232;8.616;2023-03-04T07:17:07;16.23;;;6.57;;
72087;SDS011;59961;50.232;8.616;2023-03-04T07:19:32;15.77;;;5.95;;
72087;SDS011;59961;50.232;8.616;2023-03-04T07:21:57;19.70;;;7.07;;
72087;SDS011;59961;50.232;8.616;2023-03-04T07:24:22;15.63;;;5.67;;
72087;SDS011;59961;50.232;8.616;2023-03-04T07:26:47;16.50;;;5.97;;
72087;SDS011;59961;50.232;8.616;2023-03-04T07:29:13;23.10;;;6.40;;
72087;SDS011;59961;50.232;8.616;2023-03-04T07:31:38;17.23;;;7.03;;
72087;SDS011;59961;50.232;8.616;2023-03-04T07:34:07;14.27;;;6.07;;
72087;SDS011;59961;50.232;8.616;2023-03-04T07:36:34;19.15;;;6.53;;
72087;SDS011;59961;50.232;8.616;2023-03-04T07:38:59;17.67;;;6.60;;
72087;SDS011;59961;50.232;8.616;2023-03-04T07:41:25;16.17;;;5.78;;
72087;SDS011;59961;50.232;8.616;2023-03-04T07:43:50;14.90;;;5.73;;
72087;SDS011;59961;50.232;8.616;2023-03-04T07:46:16;20.00;;;6.57;;
72087;SDS011;59961;50.232;8.616;2023-03-04T07:48:41;12.43;;;5.90;;
72087;SDS011;59961;50.232;8.616;2023-03-04T07:51:08;19.77;;;6.47;;
72087;SDS011;59961;50.232;8.616;2023-03-04T07:53:34;17.75;;;6.88;;
72087;SDS011;59961;50.232;8.616;2023-03-04T07:56:00;16.67;;;6.00;;
72087;SDS011;59961;50.232;8.616;2023-03-04T07:58:25;16.60;;;5.30;;
72087;SDS011;59961;50.232;8.616;2023-03-04T08:00:50;17.33;;;6.05;;
72087;SDS011;59961;50.232;8.616;2023-03-04T08:03:15;11.47;;;4.77;;
72087;SDS011;59961;50.232;8.616;2023-03-04T08:05:40;13.70;;;5.80;;
72087;SDS011;59961;50.232;8.616;2023-03-04T08:08:05;17.20;;;5.55;;
72087;SDS011;59961;50.232;8.616;2023-03-04T08:10:31;16.70;;;5.43;;
72087;SDS011;59961;50.232;8.616;2023-03-04T08:12:56;13.27;;;5.10;;
72087;SDS011;59961;50.232;8.616;2023-03-04T08:15:21;19.23;;;5.40;;
72087;SDS011;59961;50.232;8.616;2023-03-04T08:17:46;11.63;;;5.35;;
72087;SDS011;59961;50.232;8.616;2023-03-04T08:20:11;19.23;;;6.38;;
72087;SDS011;59961;50.232;8.616;2023-03-04T08:22:36;15.73;;;5.70;;
72087;SDS011;59961;50.232;8.616;2023-03-04T08:25:02;13.38;;;5.13;;
72087;SDS011;59961;50.232;8.616;2023-03-04T08:27:27;18.33;;;5.70;;
72087;SDS011;59961;50.232;8.616;2023-03-04T08:29:52;14.85;;;4.95;;
72087;SDS011;59961;50.232;8.616;2023-03-04T08:32:17;13.13;;;4.63;;
72087;SDS011;59961;50.232;8.616;2023-03-04T08:34:42;12.77;;;4.77;;
72087;SDS011;59961;50.232;8.616;2023-03-04T08:37:08;14.10;;;5.30;;
72087;SDS011;59961;50.232;8.616;2023-03-04T08:39:33;15.13;;;4.67;;
72087;SDS011;59961;50.232;8.616;2023-03-04T08:42:00;13.50;;;5.30;;
72087;SDS011;59961;50.232;8.616;2023-03-04T08:44:25;14.70;;;5.57;;
72087;SDS011;59961;50.232;8.616;2023-03-04T08:46:50;13.67;;;5.17;;
72087;SDS011;59961;50.232;8.616;2023-03-04T08:49:15;18.00;;;5.22;;
72087;SDS011;59961;50.232;8.616;2023-03-04T08:51:40;18.00;;;5.33;;
72087;SDS011;59961;50.232;8.616;2023-03-04T08:54:05;10.23;;;4.50;;
72087;SDS011;59961;50.232;8.616;2023-03-04T08:56:31;12.75;;;4.72;;
72087;SDS011;59961;50.232;8.616;2023-03-04T08:58:56;14.90;;;4.60;;
72087;SDS011;59961;50.232;8.616;2023-03-04T09:01:21;14.50;;;5.00;;
72087;SDS011;59961;50.232;8.616;2023-03-04T09:03:46;15.50;;;4.53;;
72087;SDS011;59961;50.232;8.616;2023-03-04T09:06:15;12.50;;;5.00;;
72087;SDS011;59961;50.232;8.616;2023-03-04T09:08:40;12.65;;;4.90;;
72087;SDS011;59961;50.232;8.616;2023-03-04T09:11:05;12.37;;;5.13;;
72087;SDS011;59961;50.232;8.616;2023-03-04T09:13:31;11.07;;;4.10;;
72087;SDS011;59961;50.232;8.616;2023-03-04T09:15:56;11.50;;;4.47;;
72087;SDS011;59961;50.232;8.616;2023-03-04T09:18:22;12.30;;;4.20;;
72087;SDS011;59961;50.232;8.616;2023-03-04T09:20:47;12.90;;;5.15;;
72087;SDS011;59961;50.232;8.616;2023-03-04T09:23:12;14.13;;;4.40;;
72087;SDS011;59961;50.232;8.616;2023-03-04T09:25:38;15.27;;;4.30;;
72087;SDS011;59961;50.232;8.616;2023-03-04T09:28:04;15.07;;;4.80;;
72087;SDS011;59961;50.232;8.616;2023-03-04T09:30:29;14.07;;;4.38;;
72087;SDS011;59961;50.232;8.616;2023-03-04T09:32:54;14.37;;;4.40;;
72087;SDS011;59961;50.232;8.616;2023-03-04T09:35:19;12.43;;;4.60;;
72087;SDS011;59961;50.232;8.616;2023-03-04T09:37:44;14.00;;;4.82;;
72087;SDS011;59961;50.232;8.616;2023-03-04T09:40:15;11.40;;;4.17;;
72087;SDS011;59961;50.232;8.616;2023-03-04T09:42:43;13.90;;;4.07;;
72087;SDS011;59961;50.232;8.616;2023-03-04T09:45:10;15.90;;;4.15;;
72087;SDS011;59961;50.232;8.616;2023-03-04T09:47:37;15.20;;;4.20;;
72087;SDS011;59961;50.232;8.616;2023-03-04T09:50:05;17.73;;;4.50;;
72087;SDS011;59961;50.232;8.616;2023-03-04T09:52:41;11.65;;;3.95;;
72087;SDS011;59961;50.232;8.616;2023-03-04T09:55:20;11.88;;;4.15;;
72087;SDS011;59961;50.232;8.616;2023-03-04T10:03:03;11.85;;;3.42;;
72087;SDS011;59961;50.232;8.616;2023-03-04T10:05:30;15.57;;;4.22;;
72087;SDS011;59961;50.232;8.616;2023-03-04T10:08:00;13.25;;;3.78;;
72087;SDS011;59961;50.232;8.616;2023-03-04T10:10:34;10.27;;;4.33;;
72087;SDS011;59961;50.232;8.616;2023-03-04T10:13:00;14.98;;;3.80;;
72087;SDS011;59961;50.232;8.616;2023-03-04T10:17:56;12.43;;;3.88;;
72087;SDS011;59961;50.232;8.616;2023-03-04T10:20:32;8.60;;;3.80;;
72087;SDS011;59961;50.232;8.616;2023-03-04T10:23:08;11.53;;;3.50;;
72087;SDS011;59961;50.232;8.616;2023-03-04T10:25:34;10.80;;;3.65;;
72087;SDS011;59961;50.232;8.616;2023-03-04T10:30:49;9.48;;;3.22;;
72087;SDS011;59961;50.232;8.616;2023-03-04T10:33:20;10.77;;;3.45;;
72087;SDS011;59961;50.232;8.616;2023-03-04T10:35:55;9.30;;;3.63;;
72087;SDS011;59961;50.232;8.616;2023-03-04T10:38:23;10.73;;;3.78;;
72087;SDS011;59961;50.232;8.616;2023-03-04T10:40:49;8.37;;;2.90;;
72087;SDS011;59961;50.232;8.616;2023-03-04T10:43:15;12.60;;;3.40;;
72087;SDS011;59961;50.232;8.616;2023-03-04T10:45:40;9.48;;;3.55;;
72087;SDS011;59961;50.232;8.616;2023-03-04T10:48:07;10.00;;;2.70;;
72087;SDS011;59961;50.232;8.616;2023-03-04T10:50:41;13.00;;;3.28;;
72087;SDS011;59961;50.232;8.616;2023-03-04T10:53:09;11.70;;;3.25;;
72087;SDS011;59961;50.232;8.616;2023-03-04T10:55:44;11.75;;;3.03;;
72087;SDS011;59961;50.232;8.616;2023-03-04T10:58:12;11.00;;;2.43;;
72087;SDS011;59961;50.232;8.616;2023-03-04T11:00:37;7.17;;;2.87;;
72087;SDS011;59961;50.232;8.616;2023-03-04T11:05:46;9.90;;;2.83;;
72087;SDS011;59961;50.232;8.616;2023-03-04T11:08:18;8.70;;;2.73;;
72087;SDS011;59961;50.232;8.616;2023-03-04T11:10:44;9.52;;;2.70;;
72087;SDS011;59961;50.232;8.616;2023-03-04T11:13:15;7.87;;;2.77;;
72087;SDS011;59961;50.232;8.616;2023-03-04T11:18:16;9.70;;;3.00;;
72087;SDS011;59961;50.232;8.616;2023-03-04T11:20:44;7.95;;;2.60;;
72087;SDS011;59961;50.232;8.616;2023-03-04T11:23:13;6.97;;;2.50;;
72087;SDS011;59961;50.232;8.616;2023-03-04T11:25:45;9.97;;;2.50;;
72087;SDS011;59961;50.232;8.616;2023-03-04T11:28:17;9.02;;;2.55;;
72087;SDS011;59961;50.232;8.616;2023-03-04T11:30:46;9.48;;;2.53;;
72087;SDS011;59961;50.232;8.616;2023-03-04T11:33:23;8.32;;;2.97;;
72087;SDS011;59961;50.232;8.616;2023-03-04T11:35:57;7.78;;;2.55;;
72087;SDS011;59961;50.232;8.616;2023-03-04T11:38:25;8.50;;;2.40;;
72087;SDS011;59961;50.232;8.616;2023-03-04T11:40:54;9.88;;;2.38;;
72087;SDS011;59961;50.232;8.616;2023-03-04T11:43:23;8.07;;;2.10;;
72087;SDS011;59961;50.232;8.616;2023-03-04T11:46:08;8.55;;;2.03;;
72087;SDS011;59961;50.232;8.616;2023-03-04T11:48:46;10.90;;;2.47;;
72087;SDS011;59961;50.232;8.616;2023-03-04T11:51:17;6.13;;;2.57;;
72087;SDS011;59961;50.232;8.616;2023-03-04T11:58:52;6.80;;;2.50;;
72087;SDS011;59961;50.232;8.616;2023-03-04T12:01:41;7.40;;;2.80;;
72087;SDS011;59961;50.232;8.616;2023-03-04T12:09:15;7.63;;;1.83;;
72087;SDS011;59961;50.232;8.616;2023-03-04T12:11:50;4.75;;;1.38;;
72087;SDS011;59961;50.232;8.616;2023-03-04T12:14:37;3.95;;;1.23;;
72087;SDS011;59961;50.232;8.616;2023-03-04T12:17:23;6.07;;;1.60;;
72087;SDS011;59961;50.232;8.616;2023-03-04T12:19:58;5.83;;;1.80;;
72087;SDS011;59961;50.232;8.616;2023-03-04T12:22:33;5.32;;;1.48;;
72087;SDS011;59961;50.232;8.616;2023-03-04T12:27:50;8.05;;;1.75;;
72087;SDS011;59961;50.232;8.616;2023-03-04T12:33:11;3.97;;;1.03;;
72087;SDS011;59961;50.232;8.616;2023-03-04T12:35:40;4.38;;;1.15;;
72087;SDS011;59961;50.232;8.616;2023-03-04T12:38:25;3.85;;;1.27;;
72087;SDS011;59961;50.232;8.616;2023-03-04T12:46:23;3.33;;;1.60;;
72087;SDS011;59961;50.232;8.616;2023-03-04T12:51:35;4.28;;;1.30;;
72087;SDS011;59961;50.232;8.616;2023-03-04T12:54:16;5.50;;;1.52;;
72087;SDS011;59961;50.232;8.616;2023-03-04T12:56:58;4.75;;;1.45;;
72087;SDS011;59961;50.232;8.616;2023-03-04T12:59:25;2.60;;;1.30;;
72087;SDS011;59961;50.232;8.616;2023-03-04T13:09:20;5.25;;;1.38;;
72087;SDS011;59961;50.232;8.616;2023-03-04T13:16:49;4.77;;;1.43;;
72087;SDS011;59961;50.232;8.616;2023-03-04T13:21:58;4.80;;;1.23;;
72087;SDS011;59961;50.232;8.616;2023-03-04T13:24:42;7.88;;;1.88;;
72087;SDS011;59961;50.232;8.616;2023-03-04T13:29:52;5.97;;;2.15;;
72087;SDS011;59961;50.232;8.616;2023-03-04T13:32:36;5.57;;;1.45;;
72087;SDS011;59961;50.232;8.616;2023-03-04T13:35:22;5.60;;;1.83;;
72087;SDS011;59961;50.232;8.616;2023-03-04T13:37:57;5.95;;;1.92;;
72087;SDS011;59961;50.232;8.616;2023-03-04T13:40:28;4.10;;;1.65;;
72087;SDS011;59961;50.232;8.616;2023-03-04T13:42:55;7.28;;;1.67;;
72087;SDS011;59961;50.232;8.616;2023-03-04T13:45:40;5.68;;;1.95;;
72087;SDS011;59961;50.232;8.616;2023-03-04T13:48:26;6.07;;;1.70;;
72087;SDS011;59961;50.232;8.616;2023-03-04T13:50:52;5.33;;;1.47;;
72087;SDS011;59961;50.232;8.616;2023-03-04T13:53:18;7.60;;;2.10;;
72087;SDS011;59961;50.232;8.616;2023-03-04T13:56:00;5.57;;;1.85;;
72087;SDS011;59961;50.232;8.616;2023-03-04T13:58:28;4.40;;;1.88;;
72087;SDS011;59961;50.232;8.616;2023-03-04T14:00:53;6.13;;;1.80;;
72087;SDS011;59961;50.232;8.616;2023-03-04T14:03:20;7.07;;;2.10;;
72087;SDS011;59961;50.232;8.616;2023-03-04T14:05:45;3.78;;;1.52;;
72087;SDS011;59961;50.232;8.616;2023-03-04T14:08:17;5.73;;;1.50;;
72087;SDS011;59961;50.232;8.616;2023-03-04T14:10:42;5.57;;;2.28;;
72087;SDS011;59961;50.232;8.616;2023-03-04T14:13:07;8.90;;;2.20;;
72087;SDS011;59961;50.232;8.616;2023-03-04T14:15:33;7.82;;;2.40;;
72087;SDS011;59961;50.232;8.616;2023-03-04T14:18:00;7.27;;;2.47;;
72087;SDS011;59961;50.232;8.616;2023-03-04T14:22:51;6.17;;;2.37;;
72087;SDS011;59961;50.232;8.616;2023-03-04T14:25:23;7.40;;;2.47;;
72087;SDS011;59961;50.232;8.616;2023-03-04T14:27:49;5.13;;;2.13;;
72087;SDS011;59961;50.232;8.616;2023-03-04T14:32:45;11.63;;;2.50;;
72087;SDS011;59961;50.232;8.616;2023-03-04T14:35:44;9.97;;;2.80;;
72087;SDS011;59961;50.232;8.616;2023-03-04T14:40:47;7.03;;;2.10;;
72087;SDS011;59961;50.232;8.616;2023-03-04T14:43:17;7.00;;;1.95;;
72087;SDS011;59961;50.232;8.616;2023-03-04T14:45:43;5.75;;;1.80;;
72087;SDS011;59961;50.232;8.616;2023-03-04T14:48:10;4.57;;;1.70;;
72087;SDS011;59961;50.232;8.616;2023-03-04T14:50:46;6.28;;;2.50;;
72087;SDS011;59961;50.232;8.616;2023-03-04T14:53:13;5.93;;;1.80;;
72087;SDS011;59961;50.232;8.616;2023-03-04T14:55:39;3.17;;;1.70;;
72087;SDS011;59961;50.232;8.616;2023-03-04T14:58:08;3.70;;;1.65;;
72087;SDS011;59961;50.232;8.616;2023-03-04T15:00:34;7.33;;;2.00;;
72087;SDS011;59961;50.232;8.616;2023-03-04T15:03:00;5.57;;;1.80;;
72087;SDS011;59961;50.232;8.616;2023-03-04T15:05:30;4.18;;;1.90;;
72087;SDS011;59961;50.232;8.616;2023-03-04T15:08:05;7.75;;;1.85;;
72087;SDS011;59961;50.232;8.616;2023-03-04T15:10:41;5.03;;;1.70;;
72087;SDS011;59961;50.232;8.616;2023-03-04T15:13:07;5.60;;;1.90;;
72087;SDS011;59961;50.232;8.616;2023-03-04T15:18:02;4.63;;;1.83;;
72087;SDS011;59961;50.232;8.616;2023-03-04T15:20:28;5.90;;;1.83;;
72087;SDS011;59961;50.232;8.616;2023-03-04T15:25:19;3.42;;;1.30;;
72087;SDS011;59961;50.232;8.616;2023-03-04T15:27:44;4.90;;;1.90;;
72087;SDS011;59961;50.232;8.616;2023-03-04T15:30:23;8.68;;;2.25;;
72087;SDS011;59961;50.232;8.616;2023-03-04T15:32:49;6.32;;;1.80;;
72087;SDS011;59961;50.232;8.616;2023-03-04T15:35:15;5.07;;;1.90;;
72087;SDS011;59961;50.232;8.616;2023-03-04T15:37:41;6.32;;;1.65;;
72087;SDS011;59961;50.232;8.616;2023-03-04T15:40:26;6.47;;;1.93;;
72087;SDS011;59961;50.232;8.616;2023-03-04T15:42:51;4.78;;;1.63;;
72087;SDS011;59961;50.232;8.616;2023-03-04T15:47:45;4.53;;;1.70;;
72087;SDS011;59961;50.232;8.616;2023-03-04T15:50:10;5.22;;;1.65;;
72087;SDS011;59961;50.232;8.616;2023-03-04T15:52:35;7.83;;;2.37;;